sensor_id;sensor_type;location;lat;lon;timestamp;P1;durP1;ratioP1;P2;durP2;ratioP2
69779;SDS011;57052;55.602;38.096;2022-11-11T00:01:29;28.00;;;11.38;;
69779;SDS011;57052;55.602;38.096;2022-11-11T00:03:55;31.17;;;11.73;;
69779;SDS011;57052;55.602;38.096;2022-11-11T00:06:20;28.63;;;11.35;;
69779;SDS011;57052;55.602;38.096;2022-11-11T00:08:46;24.77;;;11.00;;
69779;SDS011;57052;55.602;38.096;2022-11-11T00:11:13;31.15;;;12.50;;
69779;SDS011;57052;55.602;38.096;2022-11-11T00:13:40;27.77;;;11.73;;
69779;SDS011;57052;55.602;38.096;2022-11-11T00:16:11;28.13;;;12.23;;
69779;SDS011;57052;55.602;38.096;2022-11-11T00:18:41;31.23;;;11.60;;
69779;SDS011;57052;55.602;38.096;2022-11-11T00:21:26;33.58;;;11.93;;
69779;SDS011;57052;55.602;38.096;2022-11-11T00:27:19;27.25;;;11.40;;
69779;SDS011;57052;55.602;38.096;2022-11-11T00:29:45;27.40;;;11.60;;
69779;SDS011;57052;55.602;38.096;2022-11-11T00:32:10;35.28;;;13.23;;
69779;SDS011;57052;55.602;38.096;2022-11-11T00:34:49;28.92;;;12.10;;
69779;SDS011;57052;55.602;38.096;2022-11-11T00:37:33;29.20;;;12.77;;
69779;SDS011;57052;55.602;38.096;2022-11-11T00:39:59;30.33;;;11.77;;
69779;SDS011;57052;55.602;38.096;2022-11-11T00:42:25;31.33;;;11.50;;
69779;SDS011;57052;55.602;38.096;2022-11-11T00:44:51;29.90;;;12.43;;
69779;SDS011;57052;55.602;38.096;2022-11-11T00:47:16;29.33;;;12.27;;
69779;SDS011;57052;55.602;38.096;2022-11-11T00:50:00;30.02;;;12.25;;
69779;SDS011;57052;55.602;38.096;2022-11-11T00:52:45;27.88;;;12.02;;
69779;SDS011;57052;55.602;38.096;2022-11-11T00:55:11;27.60;;;11.35;;
69779;SDS011;57052;55.602;38.096;2022-11-11T00:57:38;29.65;;;12.60;;
69779;SDS011;57052;55.602;38.096;2022-11-11T01:00:03;30.10;;;12.20;;
69779;SDS011;57052;55.602;38.096;2022-11-11T01:02:30;35.97;;;12.27;;
69779;SDS011;57052;55.602;38.096;2022-11-11T01:04:55;26.17;;;11.73;;
69779;SDS011;57052;55.602;38.096;2022-11-11T01:07:21;31.58;;;12.60;;
69779;SDS011;57052;55.602;38.096;2022-11-11T01:09:47;27.52;;;11.55;;
69779;SDS011;57052;55.602;38.096;2022-11-11T01:12:12;28.90;;;12.57;;
69779;SDS011;57052;55.602;38.096;2022-11-11T01:14:38;28.75;;;11.48;;
69779;SDS011;57052;55.602;38.096;2022-11-11T01:17:04;34.00;;;12.18;;
69779;SDS011;57052;55.602;38.096;2022-11-11T01:19:30;28.50;;;12.15;;
69779;SDS011;57052;55.602;38.096;2022-11-11T01:21:56;27.98;;;12.02;;
69779;SDS011;57052;55.602;38.096;2022-11-11T01:24:22;26.63;;;11.02;;
69779;SDS011;57052;55.602;38.096;2022-11-11T01:26:48;28.45;;;11.20;;
69779;SDS011;57052;55.602;38.096;2022-11-11T01:29:14;22.90;;;10.52;;
69779;SDS011;57052;55.602;38.096;2022-11-11T01:31:40;24.08;;;10.00;;
69779;SDS011;57052;55.602;38.096;2022-11-11T01:34:05;28.08;;;10.55;;
69779;SDS011;57052;55.602;38.096;2022-11-11T01:36:31;28.33;;;11.18;;
69779;SDS011;57052;55.602;38.096;2022-11-11T01:38:57;21.73;;;10.63;;
69779;SDS011;57052;55.602;38.096;2022-11-11T01:41:25;31.23;;;11.30;;
69779;SDS011;57052;55.602;38.096;2022-11-11T01:46:43;23.95;;;10.70;;
69779;SDS011;57052;55.602;38.096;2022-11-11T01:54:25;26.20;;;10.63;;
69779;SDS011;57052;55.602;38.096;2022-11-11T01:57:00;28.88;;;11.13;;
69779;SDS011;57052;55.602;38.096;2022-11-11T01:59:30;24.92;;;10.20;;
69779;SDS011;57052;55.602;38.096;2022-11-11T02:01:58;27.35;;;10.52;;
69779;SDS011;57052;55.602;38.096;2022-11-11T02:04:24;24.90;;;10.18;;
69779;SDS011;57052;55.602;38.096;2022-11-11T02:07:09;23.75;;;9.43;;
69779;SDS011;57052;55.602;38.096;2022-11-11T02:09:35;26.50;;;10.52;;
69779;SDS011;57052;55.602;38.096;2022-11-11T02:12:05;26.45;;;10.20;;
69779;SDS011;57052;55.602;38.096;2022-11-11T02:14:53;24.52;;;9.32;;
69779;SDS011;57052;55.602;38.096;2022-11-11T02:17:22;21.13;;;9.48;;
69779;SDS011;57052;55.602;38.096;2022-11-11T02:19:51;24.08;;;9.52;;
69779;SDS011;57052;55.602;38.096;2022-11-11T02:22:27;22.92;;;9.15;;
69779;SDS011;57052;55.602;38.096;2022-11-11T02:25:02;22.00;;;9.02;;
69779;SDS011;57052;55.602;38.096;2022-11-11T02:27:31;23.02;;;9.43;;
69779;SDS011;57052;55.602;38.096;2022-11-11T02:29:59;18.80;;;8.60;;
69779;SDS011;57052;55.602;38.096;2022-11-11T02:32:26;19.83;;;8.30;;
69779;SDS011;57052;55.602;38.096;2022-11-11T02:34:52;20.35;;;9.00;;
69779;SDS011;57052;55.602;38.096;2022-11-11T02:37:21;20.05;;;8.55;;
69779;SDS011;57052;55.602;38.096;2022-11-11T02:39:49;18.80;;;8.18;;
69779;SDS011;57052;55.602;38.096;2022-11-11T02:42:17;19.90;;;8.27;;
69779;SDS011;57052;55.602;38.096;2022-11-11T02:44:45;22.48;;;9.00;;
69779;SDS011;57052;55.602;38.096;2022-11-11T02:47:11;18.92;;;8.10;;
69779;SDS011;57052;55.602;38.096;2022-11-11T02:49:36;17.50;;;7.95;;
69779;SDS011;57052;55.602;38.096;2022-11-11T02:52:02;20.05;;;8.65;;
69779;SDS011;57052;55.602;38.096;2022-11-11T02:54:28;19.27;;;8.35;;
69779;SDS011;57052;55.602;38.096;2022-11-11T02:56:53;17.75;;;7.60;;
69779;SDS011;57052;55.602;38.096;2022-11-11T02:59:31;18.48;;;7.70;;
69779;SDS011;57052;55.602;38.096;2022-11-11T03:01:58;18.85;;;7.45;;
69779;SDS011;57052;55.602;38.096;2022-11-11T03:04:23;15.88;;;6.93;;
69779;SDS011;57052;55.602;38.096;2022-11-11T03:06:49;18.05;;;8.20;;
69779;SDS011;57052;55.602;38.096;2022-11-11T03:09:14;16.40;;;7.10;;
69779;SDS011;57052;55.602;38.096;2022-11-11T03:11:43;14.48;;;6.97;;
69779;SDS011;57052;55.602;38.096;2022-11-11T03:14:08;17.20;;;7.20;;
69779;SDS011;57052;55.602;38.096;2022-11-11T03:16:34;16.10;;;7.03;;
69779;SDS011;57052;55.602;38.096;2022-11-11T03:19:18;15.57;;;6.75;;
69779;SDS011;57052;55.602;38.096;2022-11-11T03:21:44;15.38;;;6.97;;
69779;SDS011;57052;55.602;38.096;2022-11-11T03:24:10;15.05;;;6.60;;
69779;SDS011;57052;55.602;38.096;2022-11-11T03:26:35;14.35;;;7.22;;
69779;SDS011;57052;55.602;38.096;2022-11-11T03:29:02;18.10;;;7.00;;
69779;SDS011;57052;55.602;38.096;2022-11-11T03:31:28;15.88;;;6.65;;
69779;SDS011;57052;55.602;38.096;2022-11-11T03:33:53;14.38;;;6.15;;
69779;SDS011;57052;55.602;38.096;2022-11-11T03:36:19;14.10;;;6.35;;
69779;SDS011;57052;55.602;38.096;2022-11-11T03:39:31;14.32;;;6.15;;
69779;SDS011;57052;55.602;38.096;2022-11-11T03:42:08;12.73;;;5.43;;
69779;SDS011;57052;55.602;38.096;2022-11-11T03:44:34;11.25;;;5.47;;
69779;SDS011;57052;55.602;38.096;2022-11-11T03:47:00;12.02;;;4.78;;
69779;SDS011;57052;55.602;38.096;2022-11-11T03:49:25;10.20;;;5.05;;
69779;SDS011;57052;55.602;38.096;2022-11-11T03:51:51;9.05;;;5.10;;
69779;SDS011;57052;55.602;38.096;2022-11-11T03:54:16;10.30;;;5.00;;
69779;SDS011;57052;55.602;38.096;2022-11-11T03:56:42;10.20;;;4.90;;
69779;SDS011;57052;55.602;38.096;2022-11-11T03:59:07;9.25;;;4.38;;
69779;SDS011;57052;55.602;38.096;2022-11-11T04:01:33;9.02;;;4.35;;
69779;SDS011;57052;55.602;38.096;2022-11-11T04:04:17;9.70;;;4.80;;
69779;SDS011;57052;55.602;38.096;2022-11-11T04:07:01;9.02;;;4.43;;
69779;SDS011;57052;55.602;38.096;2022-11-11T04:09:45;8.63;;;4.50;;
69779;SDS011;57052;55.602;38.096;2022-11-11T04:12:30;10.25;;;4.47;;
69779;SDS011;57052;55.602;38.096;2022-11-11T04:15:17;7.90;;;4.00;;
69779;SDS011;57052;55.602;38.096;2022-11-11T04:18:01;9.18;;;4.03;;
69779;SDS011;57052;55.602;38.096;2022-11-11T04:20:27;8.10;;;3.97;;
69779;SDS011;57052;55.602;38.096;2022-11-11T04:23:10;8.45;;;4.20;;
69779;SDS011;57052;55.602;38.096;2022-11-11T04:25:36;7.93;;;4.05;;
69779;SDS011;57052;55.602;38.096;2022-11-11T04:28:14;8.25;;;4.00;;
69779;SDS011;57052;55.602;38.096;2022-11-11T04:30:58;9.20;;;4.10;;
69779;SDS011;57052;55.602;38.096;2022-11-11T04:33:24;8.95;;;4.10;;
69779;SDS011;57052;55.602;38.096;2022-11-11T04:35:50;9.63;;;4.10;;
69779;SDS011;57052;55.602;38.096;2022-11-11T04:38:16;7.93;;;4.30;;
69779;SDS011;57052;55.602;38.096;2022-11-11T04:41:00;9.88;;;4.25;;
69779;SDS011;57052;55.602;38.096;2022-11-11T04:43:29;7.97;;;4.30;;
69779;SDS011;57052;55.602;38.096;2022-11-11T04:45:59;9.50;;;4.53;;
69779;SDS011;57052;55.602;38.096;2022-11-11T04:48:25;8.60;;;4.10;;
69779;SDS011;57052;55.602;38.096;2022-11-11T04:50:51;7.07;;;3.67;;
69779;SDS011;57052;55.602;38.096;2022-11-11T04:53:17;9.38;;;4.28;;
69779;SDS011;57052;55.602;38.096;2022-11-11T04:55:43;6.57;;;3.92;;
69779;SDS011;57052;55.602;38.096;2022-11-11T04:58:29;7.90;;;3.78;;
69779;SDS011;57052;55.602;38.096;2022-11-11T05:00:57;7.55;;;3.88;;
69779;SDS011;57052;55.602;38.096;2022-11-11T05:03:23;9.77;;;4.40;;
69779;SDS011;57052;55.602;38.096;2022-11-11T05:08:43;7.65;;;3.97;;
69779;SDS011;57052;55.602;38.096;2022-11-11T05:13:59;8.88;;;4.50;;
69779;SDS011;57052;55.602;38.096;2022-11-11T05:16:47;10.07;;;4.32;;
69779;SDS011;57052;55.602;38.096;2022-11-11T05:19:33;8.63;;;4.13;;
69779;SDS011;57052;55.602;38.096;2022-11-11T05:22:22;9.10;;;4.28;;
69779;SDS011;57052;55.602;38.096;2022-11-11T05:24:50;9.68;;;4.40;;
69779;SDS011;57052;55.602;38.096;2022-11-11T05:27:34;9.05;;;4.70;;
69779;SDS011;57052;55.602;38.096;2022-11-11T05:30:00;8.30;;;4.22;;
69779;SDS011;57052;55.602;38.096;2022-11-11T05:32:26;8.43;;;4.45;;
69779;SDS011;57052;55.602;38.096;2022-11-11T05:34:52;7.78;;;4.40;;
69779;SDS011;57052;55.602;38.096;2022-11-11T05:37:17;9.55;;;4.50;;
69779;SDS011;57052;55.602;38.096;2022-11-11T05:39:43;12.13;;;4.68;;
69779;SDS011;57052;55.602;38.096;2022-11-11T05:42:09;8.75;;;4.85;;
69779;SDS011;57052;55.602;38.096;2022-11-11T05:44:35;8.55;;;4.53;;
69779;SDS011;57052;55.602;38.096;2022-11-11T05:47:01;8.10;;;4.13;;
69779;SDS011;57052;55.602;38.096;2022-11-11T05:49:27;9.25;;;4.30;;
69779;SDS011;57052;55.602;38.096;2022-11-11T05:51:53;9.15;;;4.13;;
69779;SDS011;57052;55.602;38.096;2022-11-11T05:54:20;7.63;;;3.90;;
69779;SDS011;57052;55.602;38.096;2022-11-11T05:56:45;8.52;;;3.67;;
69779;SDS011;57052;55.602;38.096;2022-11-11T05:59:11;7.65;;;4.20;;
69779;SDS011;57052;55.602;38.096;2022-11-11T06:01:36;7.88;;;4.30;;
69779;SDS011;57052;55.602;38.096;2022-11-11T06:04:02;8.57;;;4.18;;
69779;SDS011;57052;55.602;38.096;2022-11-11T06:06:29;7.68;;;4.00;;
69779;SDS011;57052;55.602;38.096;2022-11-11T06:08:55;7.35;;;3.88;;
69779;SDS011;57052;55.602;38.096;2022-11-11T06:11:20;6.82;;;4.05;;
69779;SDS011;57052;55.602;38.096;2022-11-11T06:13:47;7.85;;;3.75;;
69779;SDS011;57052;55.602;38.096;2022-11-11T06:16:12;7.70;;;4.05;;
69779;SDS011;57052;55.602;38.096;2022-11-11T06:18:38;9.07;;;3.72;;
69779;SDS011;57052;55.602;38.096;2022-11-11T06:21:03;9.90;;;4.15;;
69779;SDS011;57052;55.602;38.096;2022-11-11T06:23:29;9.93;;;4.18;;
69779;SDS011;57052;55.602;38.096;2022-11-11T06:25:55;8.23;;;3.85;;
69779;SDS011;57052;55.602;38.096;2022-11-11T06:28:41;7.22;;;3.65;;
69779;SDS011;57052;55.602;38.096;2022-11-11T06:31:12;9.07;;;3.97;;
69779;SDS011;57052;55.602;38.096;2022-11-11T06:33:40;9.43;;;3.83;;
69779;SDS011;57052;55.602;38.096;2022-11-11T06:36:06;9.55;;;4.78;;
69779;SDS011;57052;55.602;38.096;2022-11-11T06:38:33;12.85;;;4.22;;
69779;SDS011;57052;55.602;38.096;2022-11-11T06:40:58;9.68;;;4.18;;
69779;SDS011;57052;55.602;38.096;2022-11-11T06:43:24;8.02;;;4.38;;
69779;SDS011;57052;55.602;38.096;2022-11-11T06:45:50;13.38;;;5.10;;
69779;SDS011;57052;55.602;38.096;2022-11-11T06:48:18;8.93;;;4.65;;
69779;SDS011;57052;55.602;38.096;2022-11-11T06:50:44;8.80;;;4.63;;
69779;SDS011;57052;55.602;38.096;2022-11-11T06:53:11;9.98;;;4.30;;
69779;SDS011;57052;55.602;38.096;2022-11-11T06:55:38;9.80;;;4.65;;
69779;SDS011;57052;55.602;38.096;2022-11-11T06:58:08;9.00;;;4.65;;
69779;SDS011;57052;55.602;38.096;2022-11-11T07:00:38;10.85;;;4.45;;
69779;SDS011;57052;55.602;38.096;2022-11-11T07:03:05;8.27;;;4.35;;
69779;SDS011;57052;55.602;38.096;2022-11-11T07:05:32;9.52;;;4.63;;
69779;SDS011;57052;55.602;38.096;2022-11-11T07:08:02;9.75;;;4.35;;
69779;SDS011;57052;55.602;38.096;2022-11-11T07:10:32;7.40;;;3.97;;
69779;SDS011;57052;55.602;38.096;2022-11-11T07:12:59;8.32;;;3.78;;
69779;SDS011;57052;55.602;38.096;2022-11-11T07:15:25;8.05;;;3.95;;
69779;SDS011;57052;55.602;38.096;2022-11-11T07:17:51;6.80;;;4.10;;
69779;SDS011;57052;55.602;38.096;2022-11-11T07:20:17;7.43;;;3.85;;
69779;SDS011;57052;55.602;38.096;2022-11-11T07:22:42;9.65;;;4.03;;
69779;SDS011;57052;55.602;38.096;2022-11-11T07:25:08;7.47;;;4.00;;
69779;SDS011;57052;55.602;38.096;2022-11-11T07:27:37;10.63;;;4.57;;
69779;SDS011;57052;55.602;38.096;2022-11-11T07:30:04;7.45;;;4.30;;
69779;SDS011;57052;55.602;38.096;2022-11-11T07:32:31;8.52;;;4.00;;
69779;SDS011;57052;55.602;38.096;2022-11-11T07:34:56;10.07;;;4.47;;
69779;SDS011;57052;55.602;38.096;2022-11-11T07:37:22;9.27;;;4.88;;
69779;SDS011;57052;55.602;38.096;2022-11-11T07:39:47;8.13;;;4.32;;
69779;SDS011;57052;55.602;38.096;2022-11-11T07:42:13;8.68;;;4.43;;
69779;SDS011;57052;55.602;38.096;2022-11-11T07:44:39;8.65;;;4.45;;
69779;SDS011;57052;55.602;38.096;2022-11-11T07:47:05;12.05;;;4.75;;
69779;SDS011;57052;55.602;38.096;2022-11-11T07:49:31;8.70;;;4.78;;
69779;SDS011;57052;55.602;38.096;2022-11-11T07:51:57;9.10;;;4.97;;
69779;SDS011;57052;55.602;38.096;2022-11-11T07:54:23;8.85;;;4.57;;
69779;SDS011;57052;55.602;38.096;2022-11-11T07:56:48;7.53;;;4.50;;
69779;SDS011;57052;55.602;38.096;2022-11-11T07:59:14;8.93;;;4.88;;
69779;SDS011;57052;55.602;38.096;2022-11-11T08:01:39;9.30;;;4.50;;
69779;SDS011;57052;55.602;38.096;2022-11-11T08:04:05;8.65;;;4.47;;
69779;SDS011;57052;55.602;38.096;2022-11-11T08:06:31;8.68;;;4.68;;
69779;SDS011;57052;55.602;38.096;2022-11-11T08:08:56;11.05;;;4.78;;
69779;SDS011;57052;55.602;38.096;2022-11-11T08:11:22;11.88;;;5.57;;
69779;SDS011;57052;55.602;38.096;2022-11-11T08:14:06;13.27;;;5.68;;
69779;SDS011;57052;55.602;38.096;2022-11-11T08:16:32;10.75;;;5.13;;
69779;SDS011;57052;55.602;38.096;2022-11-11T08:18:58;11.48;;;5.38;;
69779;SDS011;57052;55.602;38.096;2022-11-11T08:21:24;10.18;;;5.15;;
69779;SDS011;57052;55.602;38.096;2022-11-11T08:23:50;10.68;;;5.35;;
69779;SDS011;57052;55.602;38.096;2022-11-11T08:26:16;13.52;;;5.70;;
69779;SDS011;57052;55.602;38.096;2022-11-11T08:28:42;11.70;;;6.40;;
69779;SDS011;57052;55.602;38.096;2022-11-11T08:31:08;12.02;;;5.75;;
69779;SDS011;57052;55.602;38.096;2022-11-11T08:33:34;13.82;;;6.10;;
69779;SDS011;57052;55.602;38.096;2022-11-11T08:36:00;11.75;;;6.30;;
69779;SDS011;57052;55.602;38.096;2022-11-11T08:38:27;13.35;;;5.95;;
69779;SDS011;57052;55.602;38.096;2022-11-11T08:40:52;13.93;;;6.40;;
69779;SDS011;57052;55.602;38.096;2022-11-11T08:43:19;15.13;;;7.03;;
69779;SDS011;57052;55.602;38.096;2022-11-11T08:45:45;13.40;;;6.13;;
69779;SDS011;57052;55.602;38.096;2022-11-11T08:48:10;12.70;;;6.40;;
69779;SDS011;57052;55.602;38.096;2022-11-11T08:50:37;13.82;;;6.43;;
69779;SDS011;57052;55.602;38.096;2022-11-11T08:53:04;13.35;;;7.22;;
69779;SDS011;57052;55.602;38.096;2022-11-11T08:55:31;11.23;;;5.93;;
69779;SDS011;57052;55.602;38.096;2022-11-11T08:58:00;17.10;;;7.35;;
69779;SDS011;57052;55.602;38.096;2022-11-11T09:00:27;11.95;;;6.30;;
69779;SDS011;57052;55.602;38.096;2022-11-11T09:02:53;14.40;;;6.78;;
69779;SDS011;57052;55.602;38.096;2022-11-11T09:05:19;11.45;;;6.72;;
69779;SDS011;57052;55.602;38.096;2022-11-11T09:07:45;14.23;;;7.40;;
69779;SDS011;57052;55.602;38.096;2022-11-11T09:10:11;16.88;;;6.97;;
69779;SDS011;57052;55.602;38.096;2022-11-11T09:12:38;12.75;;;6.97;;
69779;SDS011;57052;55.602;38.096;2022-11-11T09:15:04;13.93;;;6.75;;
69779;SDS011;57052;55.602;38.096;2022-11-11T09:17:29;13.57;;;6.60;;
69779;SDS011;57052;55.602;38.096;2022-11-11T09:19:55;13.50;;;6.53;;
69779;SDS011;57052;55.602;38.096;2022-11-11T09:22:21;13.38;;;6.90;;
69779;SDS011;57052;55.602;38.096;2022-11-11T09:24:46;11.75;;;6.10;;
69779;SDS011;57052;55.602;38.096;2022-11-11T09:27:12;10.60;;;5.88;;
69779;SDS011;57052;55.602;38.096;2022-11-11T09:29:38;12.70;;;6.20;;
69779;SDS011;57052;55.602;38.096;2022-11-11T09:32:03;12.55;;;6.25;;
69779;SDS011;57052;55.602;38.096;2022-11-11T09:34:32;13.02;;;6.30;;
69779;SDS011;57052;55.602;38.096;2022-11-11T09:36:57;12.57;;;5.95;;
69779;SDS011;57052;55.602;38.096;2022-11-11T09:39:23;12.73;;;6.15;;
69779;SDS011;57052;55.602;38.096;2022-11-11T09:42:13;14.63;;;6.13;;
69779;SDS011;57052;55.602;38.096;2022-11-11T09:48:12;13.05;;;6.28;;
69779;SDS011;57052;55.602;38.096;2022-11-11T09:50:58;13.75;;;6.05;;
69779;SDS011;57052;55.602;38.096;2022-11-11T09:53:31;12.07;;;5.80;;
69779;SDS011;57052;55.602;38.096;2022-11-11T09:56:20;12.82;;;5.82;;
69779;SDS011;57052;55.602;38.096;2022-11-11T09:58:55;11.05;;;5.50;;
69779;SDS011;57052;55.602;38.096;2022-11-11T10:01:37;14.10;;;5.57;;
69779;SDS011;57052;55.602;38.096;2022-11-11T10:06:52;12.45;;;5.60;;
69779;SDS011;57052;55.602;38.096;2022-11-11T10:09:26;12.32;;;5.28;;
69779;SDS011;57052;55.602;38.096;2022-11-11T10:12:15;12.70;;;5.88;;
69779;SDS011;57052;55.602;38.096;2022-11-11T10:14:44;12.15;;;5.60;;
69779;SDS011;57052;55.602;38.096;2022-11-11T10:20:09;10.43;;;5.90;;
69779;SDS011;57052;55.602;38.096;2022-11-11T10:22:42;11.85;;;5.78;;
69779;SDS011;57052;55.602;38.096;2022-11-11T10:27:41;10.52;;;5.50;;
69779;SDS011;57052;55.602;38.096;2022-11-11T10:30:27;9.63;;;5.28;;
69779;SDS011;57052;55.602;38.096;2022-11-11T10:33:15;13.25;;;6.15;;
69779;SDS011;57052;55.602;38.096;2022-11-11T10:35:49;11.13;;;5.95;;
69779;SDS011;57052;55.602;38.096;2022-11-11T10:38:29;9.70;;;5.47;;
69779;SDS011;57052;55.602;38.096;2022-11-11T10:41:04;11.63;;;5.78;;
69779;SDS011;57052;55.602;38.096;2022-11-11T10:43:36;12.23;;;5.55;;
69779;SDS011;57052;55.602;38.096;2022-11-11T10:48:59;12.32;;;5.70;;
69779;SDS011;57052;55.602;38.096;2022-11-11T10:51:36;10.63;;;5.50;;
69779;SDS011;57052;55.602;38.096;2022-11-11T10:54:26;9.15;;;5.07;;
69779;SDS011;57052;55.602;38.096;2022-11-11T10:57:10;10.68;;;5.18;;
69779;SDS011;57052;55.602;38.096;2022-11-11T11:04:50;8.40;;;4.32;;
69779;SDS011;57052;55.602;38.096;2022-11-11T11:07:40;9.18;;;4.75;;
69779;SDS011;57052;55.602;38.096;2022-11-11T11:10:17;8.57;;;4.45;;
69779;SDS011;57052;55.602;38.096;2022-11-11T11:12:49;7.88;;;4.68;;
69779;SDS011;57052;55.602;38.096;2022-11-11T11:15:22;8.85;;;4.32;;
69779;SDS011;57052;55.602;38.096;2022-11-11T11:20:23;10.60;;;5.00;;
69779;SDS011;57052;55.602;38.096;2022-11-11T11:22:52;9.23;;;5.10;;
69779;SDS011;57052;55.602;38.096;2022-11-11T11:25:23;11.13;;;4.70;;
69779;SDS011;57052;55.602;38.096;2022-11-11T11:27:51;9.45;;;5.00;;
69779;SDS011;57052;55.602;38.096;2022-11-11T11:30:18;11.75;;;4.57;;
69779;SDS011;57052;55.602;38.096;2022-11-11T11:32:56;9.30;;;4.68;;
69779;SDS011;57052;55.602;38.096;2022-11-11T11:35:34;8.73;;;4.85;;
69779;SDS011;57052;55.602;38.096;2022-11-11T11:38:02;9.50;;;4.50;;
69779;SDS011;57052;55.602;38.096;2022-11-11T11:41:14;8.18;;;4.38;;
69779;SDS011;57052;55.602;38.096;2022-11-11T11:43:49;8.85;;;4.30;;
69779;SDS011;57052;55.602;38.096;2022-11-11T12:12:12;11.60;;;4.80;;
69779;SDS011;57052;55.602;38.096;2022-11-11T12:14:36;7.60;;;4.13;;
69779;SDS011;57052;55.602;38.096;2022-11-11T12:20:13;9.20;;;4.60;;
69779;SDS011;57052;55.602;38.096;2022-11-11T12:30:31;9.05;;;4.35;;
69779;SDS011;57052;55.602;38.096;2022-11-11T12:36:15;8.93;;;4.50;;
69779;SDS011;57052;55.602;38.096;2022-11-11T12:38:57;8.55;;;4.20;;
69779;SDS011;57052;55.602;38.096;2022-11-11T12:41:49;9.48;;;4.40;;
69779;SDS011;57052;55.602;38.096;2022-11-11T12:49:45;9.75;;;4.07;;
69779;SDS011;57052;55.602;38.096;2022-11-11T12:55:30;8.38;;;4.60;;
69779;SDS011;57052;55.602;38.096;2022-11-11T13:15:31;8.80;;;4.72;;
69779;SDS011;57052;55.602;38.096;2022-11-11T13:18:00;8.00;;;4.38;;
69779;SDS011;57052;55.602;38.096;2022-11-11T13:23:09;8.40;;;4.37;;
69779;SDS011;57052;55.602;38.096;2022-11-11T13:25:36;9.00;;;5.03;;
69779;SDS011;57052;55.602;38.096;2022-11-11T13:28:06;16.02;;;7.57;;
69779;SDS011;57052;55.602;38.096;2022-11-11T13:33:24;12.23;;;5.18;;
69779;SDS011;57052;55.602;38.096;2022-11-11T13:36:00;10.63;;;4.43;;
69779;SDS011;57052;55.602;38.096;2022-11-11T13:38:37;9.77;;;4.63;;
69779;SDS011;57052;55.602;38.096;2022-11-11T13:41:09;9.40;;;5.23;;
69779;SDS011;57052;55.602;38.096;2022-11-11T13:43:42;10.35;;;4.53;;
69779;SDS011;57052;55.602;38.096;2022-11-11T13:49:19;11.20;;;5.60;;
69779;SDS011;57052;55.602;38.096;2022-11-11T13:51:46;11.05;;;5.55;;
69779;SDS011;57052;55.602;38.096;2022-11-11T13:54:24;12.05;;;5.57;;
69779;SDS011;57052;55.602;38.096;2022-11-11T13:56:59;9.30;;;5.20;;
69779;SDS011;57052;55.602;38.096;2022-11-11T14:02:47;9.90;;;5.22;;
69779;SDS011;57052;55.602;38.096;2022-11-11T14:12:41;13.13;;;5.70;;
69779;SDS011;57052;55.602;38.096;2022-11-11T14:17:58;10.02;;;4.93;;
69779;SDS011;57052;55.602;38.096;2022-11-11T14:20:34;10.70;;;4.20;;
69779;SDS011;57052;55.602;38.096;2022-11-11T14:25:42;8.27;;;3.95;;
69779;SDS011;57052;55.602;38.096;2022-11-11T14:30:52;9.77;;;4.50;;
69779;SDS011;57052;55.602;38.096;2022-11-11T14:49:44;9.77;;;4.50;;
69779;SDS011;57052;55.602;38.096;2022-11-11T14:55:17;8.18;;;4.47;;
69779;SDS011;57052;55.602;38.096;2022-11-11T14:57:47;7.85;;;4.20;;
69779;SDS011;57052;55.602;38.096;2022-11-11T15:00:25;7.97;;;3.63;;
69779;SDS011;57052;55.602;38.096;2022-11-11T15:03:02;7.07;;;3.78;;
69779;SDS011;57052;55.602;38.096;2022-11-11T15:05:44;10.15;;;3.63;;
69779;SDS011;57052;55.602;38.096;2022-11-11T15:08:24;8.45;;;4.22;;
69779;SDS011;57052;55.602;38.096;2022-11-11T15:16:18;9.35;;;3.72;;
69779;SDS011;57052;55.602;38.096;2022-11-11T15:24:08;8.05;;;3.70;;
69779;SDS011;57052;55.602;38.096;2022-11-11T15:32:14;8.90;;;3.50;;
69779;SDS011;57052;55.602;38.096;2022-11-11T15:35:18;6.75;;;3.97;;
69779;SDS011;57052;55.602;38.096;2022-11-11T15:38:02;9.18;;;4.03;;
69779;SDS011;57052;55.602;38.096;2022-11-11T15:40:31;15.38;;;6.18;;
69779;SDS011;57052;55.602;38.096;2022-11-11T15:43:18;9.40;;;4.40;;
69779;SDS011;57052;55.602;38.096;2022-11-11T15:45:51;9.10;;;3.60;;
69779;SDS011;57052;55.602;38.096;2022-11-11T15:48:25;28.23;;;13.85;;
69779;SDS011;57052;55.602;38.096;2022-11-11T15:50:53;9.63;;;4.97;;
69779;SDS011;57052;55.602;38.096;2022-11-11T15:53:23;9.23;;;3.80;;
69779;SDS011;57052;55.602;38.096;2022-11-11T15:55:51;8.93;;;3.50;;
69779;SDS011;57052;55.602;38.096;2022-11-11T15:58:26;9.13;;;3.97;;
69779;SDS011;57052;55.602;38.096;2022-11-11T16:00:53;5.05;;;3.15;;
69779;SDS011;57052;55.602;38.096;2022-11-11T16:05:58;6.70;;;3.80;;
69779;SDS011;57052;55.602;38.096;2022-11-11T16:08:28;8.40;;;3.80;;
69779;SDS011;57052;55.602;38.096;2022-11-11T16:10:57;6.10;;;3.40;;
69779;SDS011;57052;55.602;38.096;2022-11-11T16:15:57;5.80;;;3.30;;
69779;SDS011;57052;55.602;38.096;2022-11-11T16:18:29;6.40;;;3.30;;
69779;SDS011;57052;55.602;38.096;2022-11-11T16:21:06;8.55;;;3.47;;
69779;SDS011;57052;55.602;38.096;2022-11-11T16:23:55;9.98;;;4.88;;
69779;SDS011;57052;55.602;38.096;2022-11-11T16:26:56;8.30;;;4.25;;
69779;SDS011;57052;55.602;38.096;2022-11-11T16:29:21;10.63;;;3.75;;
69779;SDS011;57052;55.602;38.096;2022-11-11T16:31:48;5.53;;;3.00;;
69779;SDS011;57052;55.602;38.096;2022-11-11T16:37:02;8.57;;;2.70;;
69779;SDS011;57052;55.602;38.096;2022-11-11T16:39:29;6.25;;;2.58;;
69779;SDS011;57052;55.602;38.096;2022-11-11T16:41:56;6.43;;;2.95;;
69779;SDS011;57052;55.602;38.096;2022-11-11T16:44:39;4.88;;;2.50;;
69779;SDS011;57052;55.602;38.096;2022-11-11T16:47:39;6.90;;;3.10;;
69779;SDS011;57052;55.602;38.096;2022-11-11T16:52:46;5.28;;;3.03;;
69779;SDS011;57052;55.602;38.096;2022-11-11T16:55:19;5.22;;;2.67;;
69779;SDS011;57052;55.602;38.096;2022-11-11T16:57:59;6.22;;;2.88;;
69779;SDS011;57052;55.602;38.096;2022-11-11T17:00:27;6.67;;;3.10;;
69779;SDS011;57052;55.602;38.096;2022-11-11T17:03:15;7.55;;;2.70;;
69779;SDS011;57052;55.602;38.096;2022-11-11T17:11:11;7.57;;;3.55;;
69779;SDS011;57052;55.602;38.096;2022-11-11T17:14:05;9.35;;;3.97;;
69779;SDS011;57052;55.602;38.096;2022-11-11T17:16:31;6.95;;;3.15;;
69779;SDS011;57052;55.602;38.096;2022-11-11T17:19:00;7.15;;;3.65;;
69779;SDS011;57052;55.602;38.096;2022-11-11T17:21:27;7.68;;;2.92;;
69779;SDS011;57052;55.602;38.096;2022-11-11T17:23:52;8.20;;;3.50;;
69779;SDS011;57052;55.602;38.096;2022-11-11T17:26:18;7.43;;;3.40;;
69779;SDS011;57052;55.602;38.096;2022-11-11T17:28:44;7.68;;;3.45;;
69779;SDS011;57052;55.602;38.096;2022-11-11T17:31:10;5.85;;;2.83;;
69779;SDS011;57052;55.602;38.096;2022-11-11T17:33:37;6.35;;;2.80;;
69779;SDS011;57052;55.602;38.096;2022-11-11T17:36:03;5.20;;;2.72;;
69779;SDS011;57052;55.602;38.096;2022-11-11T17:38:34;22.17;;;10.93;;
69779;SDS011;57052;55.602;38.096;2022-11-11T17:41:01;6.22;;;3.17;;
69779;SDS011;57052;55.602;38.096;2022-11-11T17:43:26;6.53;;;3.30;;
69779;SDS011;57052;55.602;38.096;2022-11-11T17:45:52;5.57;;;2.90;;
69779;SDS011;57052;55.602;38.096;2022-11-11T17:48:18;5.82;;;2.88;;
69779;SDS011;57052;55.602;38.096;2022-11-11T17:50:43;5.47;;;2.70;;